Time;durP1;ratioP1;P1;durP2;ratioP2;P2;SDS_P1;SDS_P2;PMS_P1;PMS_P2;Temp;Humidity;BMP_temperature;BMP_pressure;BME280_temperature;BME280_humidity;BME280_pressure;Samples;Min_cycle;Max_cycle;Signal;HPM_P1;HPM_P2
2022/01/13 00:00:55;;;;;;;51.14999;22.5;;;;;;;-3.79;91.53906;97263.09;;;;
2022/01/13 00:01:57;;;;;;;51.14999;22.5;;;;;;;-3.79;91.53906;97263.09;;;;
2022/01/13 00:02:59;;;;;;;52.9;22.4;;;;;;;-3.77;91.83203;97270.86;;;;
2022/01/13 00:03:59;;;;;;;52.9;22.4;;;;;;;-3.77;91.83203;97270.86;;;;
2022/01/13 00:05:00;;;;;;;52.9;22.4;;;;;;;-3.77;91.83203;97270.86;;;;
2022/01/13 00:06:01;;;;;;;52.9;22.4;;;;;;;-3.77;91.83203;97270.86;;;;
2022/01/13 00:07:01;;;;;;;52.9;22.4;;;;;;;-3.77;91.83203;97270.86;;;;
2022/01/13 00:08:02;;;;;;;52.9;22.4;;;;;;;-3.77;91.83203;97270.86;;;;
2022/01/13 00:09:03;;;;;;;52.9;22.4;;;;;;;-3.77;91.83203;97270.86;;;;
2022/01/13 00:10:05;;;;;;;52.9;22.4;;;;;;;-3.77;91.83203;97270.86;;;;
2022/01/13 00:11:07;;;;;;;52.9;22.4;;;;;;;-3.77;91.83203;97270.86;;;;
2022/01/13 00:12:09;;;;;;;52.9;22.4;;;;;;;-3.77;91.83203;97270.86;;;;
2022/01/13 00:13:13;;;;;;;52.9;22.4;;;;;;;-3.77;91.83203;97270.86;;;;
2022/01/13 00:15:06;;;;;;;55.05;23.35;;;;;;;-3.54;91.76758;97248.25;;;;
2022/01/13 00:16:25;;;;;;;55.05;23.35;;;;;;;-3.54;91.76758;97248.25;;;;
2022/01/13 00:17:34;;;;;;;55.05;23.35;;;;;;;-3.54;91.76758;97248.25;;;;
2022/01/13 00:18:39;;;;;;;55.05;23.35;;;;;;;-3.54;91.76758;97248.25;;;;
2022/01/13 00:19:55;;;;;;;55.05;23.35;;;;;;;-3.54;91.76758;97248.25;;;;
2022/01/13 00:21:14;;;;;;;55.05;23.35;;;;;;;-3.54;91.76758;97248.25;;;;
2022/01/13 00:22:18;;;;;;;55.05;23.35;;;;;;;-3.54;91.76758;97248.25;;;;
2022/01/13 00:23:53;;;;;;;55.05;23.35;;;;;;;-3.54;91.76758;97248.25;;;;
2022/01/13 00:24:58;;;;;;;0;0;;;;;;;0;0;0;;;;
2022/01/13 00:26:01;;;;;;;0;0;;;;;;;0;0;0;;;;
2022/01/13 00:27:09;;;;;;;0;0;;;;;;;0;0;0;;;;
2022/01/13 00:28:16;;;;;;;0;0;;;;;;;0;0;0;;;;
2022/01/13 00:29:21;;;;;;;0;0;;;;;;;0;0;0;;;;
2022/01/13 00:30:24;;;;;;;0;0;;;;;;;0;0;0;;;;
2022/01/13 00:31:27;;;;;;;0;0;;;;;;;0;0;0;;;;
2022/01/13 00:32:32;;;;;;;0;0;;;;;;;0;0;0;;;;
2022/01/13 00:33:32;;;;;;;0;0;;;;;;;0;0;0;;;;
2022/01/13 00:34:33;;;;;;;0;0;;;;;;;0;0;0;;;;
2022/01/13 00:35:33;;;;;;;0;0;;;;;;;0;0;0;;;;
2022/01/13 00:36:34;;;;;;;0;0;;;;;;;0;0;0;;;;
2022/01/13 00:37:38;;;;;;;0;0;;;;;;;0;0;0;;;;
2022/01/13 00:38:38;;;;;;;0;0;;;;;;;0;0;0;;;;
2022/01/13 00:39:39;;;;;;;0;0;;;;;;;0;0;0;;;;
2022/01/13 00:40:39;;;;;;;0;0;;;;;;;0;0;0;;;;
2022/01/13 00:41:40;;;;;;;0;0;;;;;;;0;0;0;;;;
2022/01/13 00:42:40;;;;;;;0;0;;;;;;;0;0;0;;;;
2022/01/13 00:43:42;;;;;;;0;0;;;;;;;0;0;0;;;;
2022/01/13 00:44:45;;;;;;;0;0;;;;;;;0;0;0;;;;
2022/01/13 00:45:47;;;;;;;0;0;;;;;;;0;0;0;;;;
2022/01/13 00:46:55;;;;;;;0;0;;;;;;;0;0;0;;;;
2022/01/13 00:47:55;;;;;;;0;0;;;;;;;0;0;0;;;;
2022/01/13 00:48:55;;;;;;;0;0;;;;;;;0;0;0;;;;
2022/01/13 00:49:57;;;;;;;0;0;;;;;;;0;0;0;;;;
2022/01/13 00:50:58;;;;;;;0;0;;;;;;;0;0;0;;;;
2022/01/13 00:51:59;;;;;;;0;0;;;;;;;0;0;0;;;;
2022/01/13 00:53:00;;;;;;;0;0;;;;;;;0;0;0;;;;
2022/01/13 00:54:04;;;;;;;0;0;;;;;;;0;0;0;;;;
2022/01/13 00:55:09;;;;;;;0;0;;;;;;;0;0;0;;;;
2022/01/13 00:56:10;;;;;;;0;0;;;;;;;0;0;0;;;;
2022/01/13 00:57:11;;;;;;;0;0;;;;;;;0;0;0;;;;
2022/01/13 00:58:11;;;;;;;0;0;;;;;;;0;0;0;;;;
2022/01/13 00:59:12;;;;;;;0;0;;;;;;;0;0;0;;;;
2022/01/13 01:00:15;;;;;;;0;0;;;;;;;0;0;0;;;;
2022/01/13 01:01:16;;;;;;;0;0;;;;;;;0;0;0;;;;
2022/01/13 01:02:16;;;;;;;0;0;;;;;;;0;0;0;;;;
2022/01/13 01:03:17;;;;;;;0;0;;;;;;;0;0;0;;;;
2022/01/13 01:04:17;;;;;;;0;0;;;;;;;0;0;0;;;;
2022/01/13 01:05:19;;;;;;;0;0;;;;;;;0;0;0;;;;
2022/01/13 01:06:20;;;;;;;0;0;;;;;;;0;0;0;;;;
2022/01/13 01:07:21;;;;;;;0;0;;;;;;;0;0;0;;;;
2022/01/13 01:08:21;;;;;;;0;0;;;;;;;0;0;0;;;;
2022/01/13 01:09:36;;;;;;;0;0;;;;;;;0;0;0;;;;
2022/01/13 01:10:36;;;;;;;0;0;;;;;;;0;0;0;;;;
2022/01/13 01:11:37;;;;;;;0;0;;;;;;;0;0;0;;;;
2022/01/13 01:12:38;;;;;;;0;0;;;;;;;0;0;0;;;;
2022/01/13 01:13:39;;;;;;;0;0;;;;;;;0;0;0;;;;
2022/01/13 01:14:45;;;;;;;0;0;;;;;;;0;0;0;;;;
2022/01/13 01:15:48;;;;;;;0;0;;;;;;;0;0;0;;;;
2022/01/13 01:16:50;;;;;;;0;0;;;;;;;0;0;0;;;;
2022/01/13 01:17:57;;;;;;;0;0;;;;;;;0;0;0;;;;
2022/01/13 01:19:03;;;;;;;0;0;;;;;;;0;0;0;;;;
2022/01/13 01:20:07;;;;;;;0;0;;;;;;;0;0;0;;;;
2022/01/13 01:26:22;;;;;;;0;0;;;;;;;0;0;0;;;;
2022/01/13 01:27:30;;;;;;;0;0;;;;;;;0;0;0;;;;
2022/01/13 01:28:40;;;;;;;0;0;;;;;;;0;0;0;;;;
2022/01/13 01:29:50;;;;;;;0;0;;;;;;;0;0;0;;;;
2022/01/13 01:30:54;;;;;;;0;0;;;;;;;0;0;0;;;;
2022/01/13 01:31:55;;;;;;;0;0;;;;;;;0;0;0;;;;
2022/01/13 01:32:56;;;;;;;0;0;;;;;;;0;0;0;;;;
2022/01/13 01:34:13;;;;;;;0;0;;;;;;;0;0;0;;;;
2022/01/13 01:35:16;;;;;;;0;0;;;;;;;0;0;0;;;;
2022/01/13 01:36:17;;;;;;;0;0;;;;;;;0;0;0;;;;
2022/01/13 01:37:19;;;;;;;0;0;;;;;;;0;0;0;;;;
2022/01/13 01:38:21;;;;;;;0;0;;;;;;;0;0;0;;;;
2022/01/13 01:39:21;;;;;;;0;0;;;;;;;0;0;0;;;;
2022/01/13 01:40:23;;;;;;;0;0;;;;;;;0;0;0;;;;
2022/01/13 01:41:24;;;;;;;0;0;;;;;;;0;0;0;;;;
2022/01/13 01:42:25;;;;;;;0;0;;;;;;;0;0;0;;;;
2022/01/13 01:43:27;;;;;;;0;0;;;;;;;0;0;0;;;;
2022/01/13 01:44:31;;;;;;;0;0;;;;;;;0;0;0;;;;
2022/01/13 01:45:41;;;;;;;0;0;;;;;;;0;0;0;;;;
2022/01/13 01:46:42;;;;;;;0;0;;;;;;;0;0;0;;;;
2022/01/13 01:47:45;;;;;;;0;0;;;;;;;0;0;0;;;;
2022/01/13 01:48:46;;;;;;;0;0;;;;;;;0;0;0;;;;
2022/01/13 01:49:47;;;;;;;0;0;;;;;;;0;0;0;;;;
2022/01/13 01:50:58;;;;;;;0;0;;;;;;;0;0;0;;;;
2022/01/13 01:51:59;;;;;;;0;0;;;;;;;0;0;0;;;;
2022/01/13 01:53:01;;;;;;;0;0;;;;;;;0;0;0;;;;
2022/01/13 01:54:02;;;;;;;0;0;;;;;;;0;0;0;;;;
2022/01/13 01:55:03;;;;;;;56.05001;23.1;;;;;;;-2.4;91.65332;97296.22;;;;
2022/01/13 01:56:05;;;;;;;56.05001;23.1;;;;;;;-2.4;91.65332;97296.22;;;;
2022/01/13 01:57:06;;;;;;;56.05001;23.1;;;;;;;-2.4;91.65332;97296.22;;;;
2022/01/13 01:58:08;;;;;;;56.05001;23.1;;;;;;;-2.4;91.65332;97296.22;;;;
2022/01/13 01:59:12;;;;;;;56.05001;23.1;;;;;;;-2.4;91.65332;97296.22;;;;
2022/01/13 02:00:14;;;;;;;56.05001;23.1;;;;;;;-2.4;91.65332;97296.22;;;;
2022/01/13 02:01:18;;;;;;;56.05001;23.1;;;;;;;-2.4;91.65332;97296.22;;;;
2022/01/13 02:02:20;;;;;;;56.05001;23.1;;;;;;;-2.4;91.65332;97296.22;;;;
2022/01/13 02:03:22;;;;;;;56.05001;23.1;;;;;;;-2.4;91.65332;97296.22;;;;
2022/01/13 02:04:25;;;;;;;0;0;;;;;;;0;0;0;;;;
2022/01/13 02:05:26;;;;;;;0;0;;;;;;;0;0;0;;;;
2022/01/13 02:06:27;;;;;;;0;0;;;;;;;0;0;0;;;;
2022/01/13 02:07:28;;;;;;;0;0;;;;;;;0;0;0;;;;
2022/01/13 02:08:28;;;;;;;0;0;;;;;;;0;0;0;;;;
2022/01/13 02:09:29;;;;;;;0;0;;;;;;;0;0;0;;;;
2022/01/13 02:10:30;;;;;;;0;0;;;;;;;0;0;0;;;;
2022/01/13 02:11:31;;;;;;;0;0;;;;;;;0;0;0;;;;
2022/01/13 02:12:35;;;;;;;0;0;;;;;;;0;0;0;;;;
2022/01/13 02:13:39;;;;;;;0;0;;;;;;;0;0;0;;;;
2022/01/13 02:14:50;;;;;;;0;0;;;;;;;0;0;0;;;;
2022/01/13 02:16:01;;;;;;;0;0;;;;;;;0;0;0;;;;
2022/01/13 02:17:04;;;;;;;0;0;;;;;;;0;0;0;;;;
2022/01/13 02:18:07;;;;;;;0;0;;;;;;;0;0;0;;;;
2022/01/13 02:19:07;;;;;;;0;0;;;;;;;0;0;0;;;;
2022/01/13 02:20:09;;;;;;;0;0;;;;;;;0;0;0;;;;
2022/01/13 02:21:15;;;;;;;0;0;;;;;;;0;0;0;;;;
2022/01/13 02:22:16;;;;;;;0;0;;;;;;;0;0;0;;;;
2022/01/13 02:23:17;;;;;;;0;0;;;;;;;0;0;0;;;;
2022/01/13 02:24:36;;;;;;;0;0;;;;;;;0;0;0;;;;
2022/01/13 02:25:37;;;;;;;0;0;;;;;;;0;0;0;;;;
2022/01/13 02:26:38;;;;;;;0;0;;;;;;;0;0;0;;;;
2022/01/13 02:27:38;;;;;;;0;0;;;;;;;0;0;0;;;;
2022/01/13 02:28:39;;;;;;;0;0;;;;;;;0;0;0;;;;
2022/01/13 02:29:40;;;;;;;0;0;;;;;;;0;0;0;;;;
2022/01/13 02:30:41;;;;;;;0;0;;;;;;;0;0;0;;;;
2022/01/13 02:31:41;;;;;;;0;0;;;;;;;0;0;0;;;;
2022/01/13 02:32:42;;;;;;;0;0;;;;;;;0;0;0;;;;
2022/01/13 02:33:44;;;;;;;0;0;;;;;;;0;0;0;;;;
2022/01/13 02:34:44;;;;;;;49.3;20.3;;;;;;;-2.41;91.96289;97266.71;;;;
2022/01/13 02:35:46;;;;;;;49.3;20.3;;;;;;;-2.41;91.96289;97266.71;;;;
2022/01/13 02:36:47;;;;;;;49.3;20.3;;;;;;;-2.41;91.96289;97266.71;;;;
2022/01/13 02:37:52;;;;;;;49.3;20.3;;;;;;;-2.41;91.96289;97266.71;;;;
2022/01/13 02:38:53;;;;;;;49.3;20.3;;;;;;;-2.41;91.96289;97266.71;;;;
2022/01/13 02:39:55;;;;;;;49.3;20.3;;;;;;;-2.41;91.96289;97266.71;;;;
2022/01/13 02:40:55;;;;;;;49.3;20.3;;;;;;;-2.41;91.96289;97266.71;;;;
2022/01/13 02:41:58;;;;;;;49.3;20.3;;;;;;;-2.41;91.96289;97266.71;;;;
2022/01/13 02:43:01;;;;;;;49.3;20.3;;;;;;;-2.41;91.96289;97266.71;;;;
2022/01/13 02:44:02;;;;;;;49.3;20.3;;;;;;;-2.41;91.96289;97266.71;;;;
2022/01/13 02:45:14;;;;;;;0;0;;;;;;;0;0;0;;;;
2022/01/13 02:46:18;;;;;;;0;0;;;;;;;0;0;0;;;;
2022/01/13 02:47:59;;;;;;;0;0;;;;;;;0;0;0;;;;
2022/01/13 02:49:00;;;;;;;0;0;;;;;;;0;0;0;;;;
2022/01/13 02:50:04;;;;;;;0;0;;;;;;;0;0;0;;;;
2022/01/13 02:51:06;;;;;;;0;0;;;;;;;0;0;0;;;;
2022/01/13 02:52:06;;;;;;;0;0;;;;;;;0;0;0;;;;
2022/01/13 02:53:07;;;;;;;0;0;;;;;;;0;0;0;;;;
2022/01/13 02:54:08;;;;;;;0;0;;;;;;;0;0;0;;;;
2022/01/13 02:55:09;;;;;;;0;0;;;;;;;0;0;0;;;;
2022/01/13 02:56:11;;;;;;;0;0;;;;;;;0;0;0;;;;
2022/01/13 02:57:11;;;;;;;0;0;;;;;;;0;0;0;;;;
2022/01/13 02:58:11;;;;;;;0;0;;;;;;;0;0;0;;;;
2022/01/13 02:59:13;;;;;;;0;0;;;;;;;0;0;0;;;;
2022/01/13 03:00:14;;;;;;;0;0;;;;;;;0;0;0;;;;
2022/01/13 03:01:16;;;;;;;0;0;;;;;;;0;0;0;;;;
2022/01/13 03:02:16;;;;;;;0;0;;;;;;;0;0;0;;;;
2022/01/13 03:03:17;;;;;;;0;0;;;;;;;0;0;0;;;;
2022/01/13 03:04:21;;;;;;;0;0;;;;;;;0;0;0;;;;
2022/01/13 03:05:22;;;;;;;0;0;;;;;;;0;0;0;;;;
2022/01/13 03:06:28;;;;;;;0;0;;;;;;;0;0;0;;;;
2022/01/13 03:07:33;;;;;;;0;0;;;;;;;0;0;0;;;;
2022/01/13 03:08:33;;;;;;;0;0;;;;;;;0;0;0;;;;
2022/01/13 03:09:34;;;;;;;0;0;;;;;;;0;0;0;;;;
2022/01/13 03:10:35;;;;;;;0;0;;;;;;;0;0;0;;;;
2022/01/13 03:11:37;;;;;;;0;0;;;;;;;0;0;0;;;;
2022/01/13 03:12:41;;;;;;;0;0;;;;;;;0;0;0;;;;
2022/01/13 03:13:42;;;;;;;0;0;;;;;;;0;0;0;;;;
2022/01/13 03:14:42;;;;;;;0;0;;;;;;;0;0;0;;;;
2022/01/13 03:15:43;;;;;;;0;0;;;;;;;0;0;0;;;;
2022/01/13 03:16:43;;;;;;;0;0;;;;;;;0;0;0;;;;
2022/01/13 03:17:45;;;;;;;0;0;;;;;;;0;0;0;;;;
2022/01/13 03:18:45;;;;;;;0;0;;;;;;;0;0;0;;;;
2022/01/13 03:19:46;;;;;;;0;0;;;;;;;0;0;0;;;;
2022/01/13 03:20:46;;;;;;;0;0;;;;;;;0;0;0;;;;
2022/01/13 03:21:47;;;;;;;0;0;;;;;;;0;0;0;;;;
2022/01/13 03:22:48;;;;;;;0;0;;;;;;;0;0;0;;;;
2022/01/13 03:23:50;;;;;;;0;0;;;;;;;0;0;0;;;;
2022/01/13 03:24:50;;;;;;;0;0;;;;;;;0;0;0;;;;
2022/01/13 03:25:51;;;;;;;0;0;;;;;;;0;0;0;;;;
2022/01/13 03:26:52;;;;;;;0;0;;;;;;;0;0;0;;;;
2022/01/13 03:27:53;;;;;;;0;0;;;;;;;0;0;0;;;;
2022/01/13 03:29:04;;;;;;;0;0;;;;;;;0;0;0;;;;
2022/01/13 03:45:06;;;;;;;0;0;;;;;;;0;0;0;;;;
2022/01/13 03:46:07;;;;;;;0;0;;;;;;;0;0;0;;;;
2022/01/13 03:47:09;;;;;;;0;0;;;;;;;0;0;0;;;;
2022/01/13 03:48:10;;;;;;;0;0;;;;;;;0;0;0;;;;
2022/01/13 03:49:12;;;;;;;0;0;;;;;;;0;0;0;;;;
2022/01/13 03:50:13;;;;;;;0;0;;;;;;;0;0;0;;;;
2022/01/13 03:51:13;;;;;;;0;0;;;;;;;0;0;0;;;;
2022/01/13 03:52:14;;;;;;;0;0;;;;;;;0;0;0;;;;
2022/01/13 04:01:23;;;;;;;0;0;;;;;;;0;0;0;;;;
2022/01/13 04:02:52;;;;;;;0;0;;;;;;;0;0;0;;;;
2022/01/13 04:03:52;;;;;;;0;0;;;;;;;0;0;0;;;;
2022/01/13 04:04:53;;;;;;;0;0;;;;;;;0;0;0;;;;
2022/01/13 04:05:53;;;;;;;0;0;;;;;;;0;0;0;;;;
2022/01/13 04:07:36;;;;;;;0;0;;;;;;;0;0;0;;;;
2022/01/13 04:08:36;;;;;;;0;0;;;;;;;0;0;0;;;;
2022/01/13 04:09:38;;;;;;;0;0;;;;;;;0;0;0;;;;
2022/01/13 04:13:56;;;;;;;0;0;;;;;;;0;0;0;;;;
2022/01/13 04:15:00;;;;;;;0;0;;;;;;;0;0;0;;;;
2022/01/13 04:16:01;;;;;;;0;0;;;;;;;0;0;0;;;;
2022/01/13 04:17:01;;;;;;;0;0;;;;;;;0;0;0;;;;
2022/01/13 04:18:02;;;;;;;0;0;;;;;;;0;0;0;;;;
2022/01/13 04:19:04;;;;;;;0;0;;;;;;;0;0;0;;;;
2022/01/13 04:20:07;;;;;;;0;0;;;;;;;0;0;0;;;;
2022/01/13 04:21:09;;;;;;;0;0;;;;;;;0;0;0;;;;
2022/01/13 04:22:09;;;;;;;0;0;;;;;;;0;0;0;;;;
2022/01/13 04:23:10;;;;;;;0;0;;;;;;;0;0;0;;;;
2022/01/13 04:24:11;;;;;;;0;0;;;;;;;0;0;0;;;;
2022/01/13 04:25:14;;;;;;;0;0;;;;;;;0;0;0;;;;
2022/01/13 04:26:18;;;;;;;0;0;;;;;;;0;0;0;;;;
2022/01/13 04:27:21;;;;;;;0;0;;;;;;;0;0;0;;;;
2022/01/13 04:28:27;;;;;;;0;0;;;;;;;0;0;0;;;;
2022/01/13 04:29:33;;;;;;;0;0;;;;;;;0;0;0;;;;
2022/01/13 04:30:46;;;;;;;0;0;;;;;;;0;0;0;;;;
2022/01/13 04:31:46;;;;;;;0;0;;;;;;;0;0;0;;;;
2022/01/13 04:32:49;;;;;;;0;0;;;;;;;0;0;0;;;;
2022/01/13 04:33:50;;;;;;;0;0;;;;;;;0;0;0;;;;
2022/01/13 04:34:50;;;;;;;0;0;;;;;;;0;0;0;;;;
2022/01/13 04:35:51;;;;;;;0;0;;;;;;;0;0;0;;;;
2022/01/13 04:36:52;;;;;;;0;0;;;;;;;0;0;0;;;;
2022/01/13 04:37:53;;;;;;;0;0;;;;;;;0;0;0;;;;
2022/01/13 04:38:54;;;;;;;0;0;;;;;;;0;0;0;;;;
2022/01/13 04:39:54;;;;;;;0;0;;;;;;;0;0;0;;;;
2022/01/13 04:40:56;;;;;;;0;0;;;;;;;0;0;0;;;;
2022/01/13 04:41:57;;;;;;;0;0;;;;;;;0;0;0;;;;
2022/01/13 04:42:58;;;;;;;0;0;;;;;;;0;0;0;;;;
2022/01/13 04:43:59;;;;;;;0;0;;;;;;;0;0;0;;;;
2022/01/13 04:45:00;;;;;;;0;0;;;;;;;0;0;0;;;;
2022/01/13 04:46:00;;;;;;;0;0;;;;;;;0;0;0;;;;
2022/01/13 04:47:07;;;;;;;0;0;;;;;;;0;0;0;;;;
2022/01/13 04:48:08;;;;;;;0;0;;;;;;;0;0;0;;;;
2022/01/13 04:49:08;;;;;;;0;0;;;;;;;0;0;0;;;;
2022/01/13 04:50:09;;;;;;;0;0;;;;;;;0;0;0;;;;
2022/01/13 04:51:10;;;;;;;0;0;;;;;;;0;0;0;;;;
2022/01/13 04:52:10;;;;;;;0;0;;;;;;;0;0;0;;;;
2022/01/13 04:53:11;;;;;;;0;0;;;;;;;0;0;0;;;;
2022/01/13 04:54:12;;;;;;;0;0;;;;;;;0;0;0;;;;
2022/01/13 04:55:21;;;;;;;0;0;;;;;;;0;0;0;;;;
2022/01/13 04:56:29;;;;;;;0;0;;;;;;;0;0;0;;;;
2022/01/13 04:57:29;;;;;;;0;0;;;;;;;0;0;0;;;;
2022/01/13 04:58:29;;;;;;;0;0;;;;;;;0;0;0;;;;
2022/01/13 04:59:30;;;;;;;0;0;;;;;;;0;0;0;;;;
2022/01/13 05:00:30;;;;;;;0;0;;;;;;;0;0;0;;;;
2022/01/13 05:01:33;;;;;;;0;0;;;;;;;0;0;0;;;;
2022/01/13 05:02:35;;;;;;;0;0;;;;;;;0;0;0;;;;
2022/01/13 05:03:35;;;;;;;0;0;;;;;;;0;0;0;;;;
2022/01/13 05:04:36;;;;;;;0;0;;;;;;;0;0;0;;;;
2022/01/13 05:05:36;;;;;;;0;0;;;;;;;0;0;0;;;;
2022/01/13 05:06:37;;;;;;;0;0;;;;;;;0;0;0;;;;
2022/01/13 05:07:37;;;;;;;0;0;;;;;;;0;0;0;;;;
2022/01/13 05:08:38;;;;;;;0;0;;;;;;;0;0;0;;;;
2022/01/13 05:09:38;;;;;;;0;0;;;;;;;0;0;0;;;;
2022/01/13 05:10:39;;;;;;;0;0;;;;;;;0;0;0;;;;
2022/01/13 05:11:39;;;;;;;0;0;;;;;;;0;0;0;;;;
2022/01/13 05:12:42;;;;;;;0;0;;;;;;;0;0;0;;;;
2022/01/13 05:13:43;;;;;;;0;0;;;;;;;0;0;0;;;;
2022/01/13 05:14:47;;;;;;;0;0;;;;;;;0;0;0;;;;
2022/01/13 05:15:49;;;;;;;0;0;;;;;;;0;0;0;;;;
2022/01/13 05:16:57;;;;;;;0;0;;;;;;;0;0;0;;;;
2022/01/13 05:18:07;;;;;;;0;0;;;;;;;0;0;0;;;;
2022/01/13 05:19:14;;;;;;;0;0;;;;;;;0;0;0;;;;
2022/01/13 05:20:17;;;;;;;0;0;;;;;;;0;0;0;;;;
2022/01/13 05:21:22;;;;;;;0;0;;;;;;;0;0;0;;;;
2022/01/13 05:22:23;;;;;;;0;0;;;;;;;0;0;0;;;;
2022/01/13 05:23:24;;;;;;;0;0;;;;;;;0;0;0;;;;
2022/01/13 05:24:24;;;;;;;0;0;;;;;;;0;0;0;;;;
2022/01/13 05:25:26;;;;;;;0;0;;;;;;;0;0;0;;;;
2022/01/13 05:26:27;;;;;;;0;0;;;;;;;0;0;0;;;;
2022/01/13 05:27:27;;;;;;;0;0;;;;;;;0;0;0;;;;
2022/01/13 05:28:28;;;;;;;0;0;;;;;;;0;0;0;;;;
2022/01/13 05:29:28;;;;;;;0;0;;;;;;;0;0;0;;;;
2022/01/13 05:30:29;;;;;;;0;0;;;;;;;0;0;0;;;;
2022/01/13 05:31:29;;;;;;;0;0;;;;;;;0;0;0;;;;
2022/01/13 05:32:30;;;;;;;0;0;;;;;;;0;0;0;;;;
2022/01/13 05:33:31;;;;;;;0;0;;;;;;;0;0;0;;;;
2022/01/13 05:34:32;;;;;;;0;0;;;;;;;0;0;0;;;;
2022/01/13 05:35:32;;;;;;;0;0;;;;;;;0;0;0;;;;
2022/01/13 05:36:33;;;;;;;0;0;;;;;;;0;0;0;;;;
2022/01/13 05:37:34;;;;;;;0;0;;;;;;;0;0;0;;;;
2022/01/13 05:38:35;;;;;;;0;0;;;;;;;0;0;0;;;;
2022/01/13 05:39:35;;;;;;;0;0;;;;;;;0;0;0;;;;
2022/01/13 05:40:36;;;;;;;0;0;;;;;;;0;0;0;;;;
2022/01/13 05:41:37;;;;;;;0;0;;;;;;;0;0;0;;;;
2022/01/13 05:42:39;;;;;;;0;0;;;;;;;0;0;0;;;;
2022/01/13 05:43:40;;;;;;;0;0;;;;;;;0;0;0;;;;
2022/01/13 05:44:40;;;;;;;0;0;;;;;;;0;0;0;;;;
2022/01/13 05:45:40;;;;;;;0;0;;;;;;;0;0;0;;;;
2022/01/13 05:46:41;;;;;;;0;0;;;;;;;0;0;0;;;;
2022/01/13 05:47:41;;;;;;;0;0;;;;;;;0;0;0;;;;
2022/01/13 05:48:43;;;;;;;0;0;;;;;;;0;0;0;;;;
2022/01/13 05:49:43;;;;;;;0;0;;;;;;;0;0;0;;;;
2022/01/13 05:50:44;;;;;;;0;0;;;;;;;0;0;0;;;;
2022/01/13 05:51:45;;;;;;;0;0;;;;;;;0;0;0;;;;
2022/01/13 05:52:45;;;;;;;0;0;;;;;;;0;0;0;;;;
2022/01/13 05:53:46;;;;;;;0;0;;;;;;;0;0;0;;;;
2022/01/13 05:54:47;;;;;;;0;0;;;;;;;0;0;0;;;;
2022/01/13 05:55:47;;;;;;;0;0;;;;;;;0;0;0;;;;
2022/01/13 05:56:48;;;;;;;0;0;;;;;;;0;0;0;;;;
2022/01/13 05:57:48;;;;;;;0;0;;;;;;;0;0;0;;;;
2022/01/13 05:58:50;;;;;;;0;0;;;;;;;0;0;0;;;;
2022/01/13 06:14:51;;;;;;;0;0;;;;;;;0;0;0;;;;
2022/01/13 06:15:52;;;;;;;0;0;;;;;;;0;0;0;;;;
2022/01/13 06:16:52;;;;;;;0;0;;;;;;;0;0;0;;;;
2022/01/13 06:17:53;;;;;;;0;0;;;;;;;0;0;0;;;;
2022/01/13 06:18:55;;;;;;;0;0;;;;;;;0;0;0;;;;
2022/01/13 06:19:58;;;;;;;0;0;;;;;;;0;0;0;;;;
2022/01/13 06:20:59;;;;;;;0;0;;;;;;;0;0;0;;;;
2022/01/13 06:21:59;;;;;;;0;0;;;;;;;0;0;0;;;;
2022/01/13 06:23:02;;;;;;;0;0;;;;;;;0;0;0;;;;
2022/01/13 06:24:02;;;;;;;0;0;;;;;;;0;0;0;;;;
2022/01/13 06:25:03;;;;;;;0;0;;;;;;;0;0;0;;;;
2022/01/13 06:26:06;;;;;;;0;0;;;;;;;0;0;0;;;;
2022/01/13 06:27:07;;;;;;;0;0;;;;;;;0;0;0;;;;
2022/01/13 06:28:07;;;;;;;0;0;;;;;;;0;0;0;;;;
2022/01/13 06:29:08;;;;;;;0;0;;;;;;;0;0;0;;;;
2022/01/13 06:30:08;;;;;;;0;0;;;;;;;0;0;0;;;;
2022/01/13 06:31:12;;;;;;;0;0;;;;;;;0;0;0;;;;
2022/01/13 06:32:13;;;;;;;0;0;;;;;;;0;0;0;;;;
2022/01/13 06:33:13;;;;;;;0;0;;;;;;;0;0;0;;;;
2022/01/13 06:34:14;;;;;;;0;0;;;;;;;0;0;0;;;;
2022/01/13 06:35:14;;;;;;;0;0;;;;;;;0;0;0;;;;
2022/01/13 06:36:15;;;;;;;0;0;;;;;;;0;0;0;;;;
2022/01/13 06:37:15;;;;;;;0;0;;;;;;;0;0;0;;;;
2022/01/13 06:38:17;;;;;;;0;0;;;;;;;0;0;0;;;;
2022/01/13 06:39:17;;;;;;;0;0;;;;;;;0;0;0;;;;
2022/01/13 06:40:18;;;;;;;0;0;;;;;;;0;0;0;;;;
2022/01/13 06:41:19;;;;;;;0;0;;;;;;;0;0;0;;;;
2022/01/13 06:42:19;;;;;;;0;0;;;;;;;0;0;0;;;;
2022/01/13 06:43:19;;;;;;;0;0;;;;;;;0;0;0;;;;
2022/01/13 06:44:20;;;;;;;0;0;;;;;;;0;0;0;;;;
2022/01/13 06:45:20;;;;;;;0;0;;;;;;;0;0;0;;;;
2022/01/13 06:46:22;;;;;;;0;0;;;;;;;0;0;0;;;;
2022/01/13 06:47:23;;;;;;;0;0;;;;;;;0;0;0;;;;
2022/01/13 06:48:23;;;;;;;0;0;;;;;;;0;0;0;;;;
2022/01/13 06:49:24;;;;;;;0;0;;;;;;;0;0;0;;;;
2022/01/13 06:50:24;;;;;;;0;0;;;;;;;0;0;0;;;;
2022/01/13 06:51:25;;;;;;;0;0;;;;;;;0;0;0;;;;
2022/01/13 06:52:26;;;;;;;0;0;;;;;;;0;0;0;;;;
2022/01/13 06:53:26;;;;;;;0;0;;;;;;;0;0;0;;;;
2022/01/13 06:54:27;;;;;;;0;0;;;;;;;0;0;0;;;;
2022/01/13 06:55:27;;;;;;;0;0;;;;;;;0;0;0;;;;
2022/01/13 06:56:28;;;;;;;0;0;;;;;;;0;0;0;;;;
2022/01/13 06:57:30;;;;;;;0;0;;;;;;;0;0;0;;;;
2022/01/13 06:58:31;;;;;;;0;0;;;;;;;0;0;0;;;;
2022/01/13 06:59:31;;;;;;;0;0;;;;;;;0;0;0;;;;
2022/01/13 07:00:33;;;;;;;0;0;;;;;;;0;0;0;;;;
2022/01/13 07:01:33;;;;;;;0;0;;;;;;;0;0;0;;;;
2022/01/13 07:02:35;;;;;;;0;0;;;;;;;0;0;0;;;;
2022/01/13 07:03:35;;;;;;;0;0;;;;;;;0;0;0;;;;
2022/01/13 07:04:36;;;;;;;0;0;;;;;;;0;0;0;;;;
2022/01/13 07:05:36;;;;;;;0;0;;;;;;;0;0;0;;;;
2022/01/13 07:06:37;;;;;;;0;0;;;;;;;0;0;0;;;;
2022/01/13 07:07:39;;;;;;;0;0;;;;;;;0;0;0;;;;
2022/01/13 07:08:40;;;;;;;0;0;;;;;;;0;0;0;;;;
2022/01/13 07:09:41;;;;;;;0;0;;;;;;;0;0;0;;;;
2022/01/13 07:10:41;;;;;;;0;0;;;;;;;0;0;0;;;;
2022/01/13 07:11:42;;;;;;;0;0;;;;;;;0;0;0;;;;
2022/01/13 07:12:44;;;;;;;0;0;;;;;;;0;0;0;;;;
2022/01/13 07:13:44;;;;;;;0;0;;;;;;;0;0;0;;;;
2022/01/13 07:14:45;;;;;;;0;0;;;;;;;0;0;0;;;;
2022/01/13 07:15:45;;;;;;;0;0;;;;;;;0;0;0;;;;
2022/01/13 07:16:46;;;;;;;0;0;;;;;;;0;0;0;;;;
2022/01/13 07:17:47;;;;;;;0;0;;;;;;;0;0;0;;;;
2022/01/13 07:18:47;;;;;;;0;0;;;;;;;0;0;0;;;;
2022/01/13 07:19:48;;;;;;;0;0;;;;;;;0;0;0;;;;
2022/01/13 07:20:48;;;;;;;0;0;;;;;;;0;0;0;;;;
2022/01/13 07:21:50;;;;;;;0;0;;;;;;;0;0;0;;;;
2022/01/13 07:22:51;;;;;;;0;0;;;;;;;0;0;0;;;;
2022/01/13 07:23:52;;;;;;;0;0;;;;;;;0;0;0;;;;
2022/01/13 07:24:52;;;;;;;0;0;;;;;;;0;0;0;;;;
2022/01/13 07:25:53;;;;;;;0;0;;;;;;;0;0;0;;;;
2022/01/13 07:26:54;;;;;;;0;0;;;;;;;0;0;0;;;;
2022/01/13 07:27:55;;;;;;;0;0;;;;;;;0;0;0;;;;
2022/01/13 07:28:55;;;;;;;0;0;;;;;;;0;0;0;;;;
2022/01/13 07:29:56;;;;;;;0;0;;;;;;;0;0;0;;;;
2022/01/13 07:30:56;;;;;;;0;0;;;;;;;0;0;0;;;;
2022/01/13 07:31:58;;;;;;;0;0;;;;;;;0;0;0;;;;
2022/01/13 07:32:58;;;;;;;0;0;;;;;;;0;0;0;;;;
2022/01/13 07:33:59;;;;;;;0;0;;;;;;;0;0;0;;;;
2022/01/13 07:35:00;;;;;;;0;0;;;;;;;0;0;0;;;;
2022/01/13 07:36:01;;;;;;;0;0;;;;;;;0;0;0;;;;
2022/01/13 07:37:01;;;;;;;0;0;;;;;;;0;0;0;;;;
2022/01/13 07:38:02;;;;;;;0;0;;;;;;;0;0;0;;;;
2022/01/13 07:39:03;;;;;;;0;0;;;;;;;0;0;0;;;;
2022/01/13 07:40:04;;;;;;;0;0;;;;;;;0;0;0;;;;
2022/01/13 07:41:05;;;;;;;0;0;;;;;;;0;0;0;;;;
2022/01/13 07:42:06;;;;;;;0;0;;;;;;;0;0;0;;;;
2022/01/13 07:43:07;;;;;;;0;0;;;;;;;0;0;0;;;;
2022/01/13 07:44:08;;;;;;;0;0;;;;;;;0;0;0;;;;
2022/01/13 07:45:09;;;;;;;0;0;;;;;;;0;0;0;;;;
2022/01/13 07:46:10;;;;;;;0;0;;;;;;;0;0;0;;;;
2022/01/13 07:47:11;;;;;;;0;0;;;;;;;0;0;0;;;;
2022/01/13 07:48:11;;;;;;;0;0;;;;;;;0;0;0;;;;
2022/01/13 07:49:11;;;;;;;0;0;;;;;;;0;0;0;;;;
2022/01/13 07:50:12;;;;;;;0;0;;;;;;;0;0;0;;;;
2022/01/13 07:51:15;;;;;;;0;0;;;;;;;0;0;0;;;;
2022/01/13 07:52:15;;;;;;;0;0;;;;;;;0;0;0;;;;
2022/01/13 07:53:16;;;;;;;0;0;;;;;;;0;0;0;;;;
2022/01/13 07:54:16;;;;;;;0;0;;;;;;;0;0;0;;;;
2022/01/13 07:55:17;;;;;;;0;0;;;;;;;0;0;0;;;;
2022/01/13 07:56:17;;;;;;;0;0;;;;;;;0;0;0;;;;
2022/01/13 07:57:18;;;;;;;0;0;;;;;;;0;0;0;;;;
2022/01/13 07:58:18;;;;;;;0;0;;;;;;;0;0;0;;;;
2022/01/13 08:14:19;;;;;;;0;0;;;;;;;0;0;0;;;;
2022/01/13 08:15:20;;;;;;;0;0;;;;;;;0;0;0;;;;
2022/01/13 08:16:20;;;;;;;0;0;;;;;;;0;0;0;;;;
2022/01/13 08:19:45;;;;;;;0;0;;;;;;;0;0;0;;;;
2022/01/13 08:20:45;;;;;;;0;0;;;;;;;0;0;0;;;;
2022/01/13 08:21:46;;;;;;;0;0;;;;;;;0;0;0;;;;
2022/01/13 08:22:47;;;;;;;0;0;;;;;;;0;0;0;;;;
2022/01/13 08:23:48;;;;;;;0;0;;;;;;;0;0;0;;;;
2022/01/13 08:24:48;;;;;;;0;0;;;;;;;0;0;0;;;;
2022/01/13 08:25:49;;;;;;;0;0;;;;;;;0;0;0;;;;
2022/01/13 08:26:49;;;;;;;0;0;;;;;;;0;0;0;;;;
2022/01/13 08:27:50;;;;;;;0;0;;;;;;;0;0;0;;;;
2022/01/13 08:28:51;;;;;;;0;0;;;;;;;0;0;0;;;;
2022/01/13 08:29:51;;;;;;;0;0;;;;;;;0;0;0;;;;
2022/01/13 08:30:52;;;;;;;0;0;;;;;;;0;0;0;;;;
2022/01/13 08:31:52;;;;;;;0;0;;;;;;;0;0;0;;;;
2022/01/13 08:32:53;;;;;;;0;0;;;;;;;0;0;0;;;;
2022/01/13 08:33:53;;;;;;;0;0;;;;;;;0;0;0;;;;
2022/01/13 08:34:54;;;;;;;0;0;;;;;;;0;0;0;;;;
2022/01/13 08:35:54;;;;;;;0;0;;;;;;;0;0;0;;;;
2022/01/13 08:36:56;;;;;;;0;0;;;;;;;0;0;0;;;;
2022/01/13 08:38:01;;;;;;;0;0;;;;;;;0;0;0;;;;
2022/01/13 08:39:02;;;;;;;0;0;;;;;;;0;0;0;;;;
2022/01/13 08:40:03;;;;;;;0;0;;;;;;;0;0;0;;;;
2022/01/13 08:41:07;;;;;;;0;0;;;;;;;0;0;0;;;;
2022/01/13 08:42:07;;;;;;;0;0;;;;;;;0;0;0;;;;
2022/01/13 08:43:08;;;;;;;0;0;;;;;;;0;0;0;;;;
2022/01/13 08:44:08;;;;;;;0;0;;;;;;;0;0;0;;;;
2022/01/13 08:45:09;;;;;;;35.89999;16.15;;;;;;;-1.69;90.35938;97380.13;;;;
2022/01/13 08:46:12;;;;;;;35.89999;16.15;;;;;;;-1.69;90.35938;97380.13;;;;
2022/01/13 08:47:12;;;;;;;35.89999;16.15;;;;;;;-1.69;90.35938;97380.13;;;;
2022/01/13 08:48:13;;;;;;;35.89999;16.15;;;;;;;-1.69;90.35938;97380.13;;;;
2022/01/13 08:49:14;;;;;;;35.89999;16.15;;;;;;;-1.69;90.35938;97380.13;;;;
2022/01/13 08:50:15;;;;;;;35.89999;16.15;;;;;;;-1.69;90.35938;97380.13;;;;
2022/01/13 08:51:17;;;;;;;35.89999;16.15;;;;;;;-1.69;90.35938;97380.13;;;;
2022/01/13 08:52:17;;;;;;;35.89999;16.15;;;;;;;-1.69;90.35938;97380.13;;;;
2022/01/13 08:53:18;;;;;;;35.89999;16.15;;;;;;;-1.69;90.35938;97380.13;;;;
2022/01/13 08:54:21;;;;;;;35.89999;16.15;;;;;;;-1.69;90.35938;97380.13;;;;
2022/01/13 08:55:21;;;;;;;35.4;16.05;;;;;;;-1.06;89.01953;97378.13;;;;
2022/01/13 08:56:22;;;;;;;35.4;16.05;;;;;;;-1.06;89.01953;97378.13;;;;
2022/01/13 08:57:22;;;;;;;35.4;16.05;;;;;;;-1.06;89.01953;97378.13;;;;
2022/01/13 08:58:23;;;;;;;35.4;16.05;;;;;;;-1.06;89.01953;97378.13;;;;
2022/01/13 08:59:23;;;;;;;35.4;16.05;;;;;;;-1.06;89.01953;97378.13;;;;
2022/01/13 09:00:24;;;;;;;35.4;16.05;;;;;;;-1.06;89.01953;97378.13;;;;
2022/01/13 09:01:26;;;;;;;35.4;16.05;;;;;;;-1.06;89.01953;97378.13;;;;
2022/01/13 09:02:33;;;;;;;35.4;16.05;;;;;;;-1.06;89.01953;97378.13;;;;
2022/01/13 09:03:33;;;;;;;35.4;16.05;;;;;;;-1.06;89.01953;97378.13;;;;
2022/01/13 09:04:34;;;;;;;35.4;16.05;;;;;;;-1.06;89.01953;97378.13;;;;
2022/01/13 09:05:34;;;;;;;35.4;16.05;;;;;;;-1.06;89.01953;97378.13;;;;
2022/01/13 09:06:36;;;;;;;35.5;16.15;;;;;;;-0.52;88.22852;97389.98;;;;
2022/01/13 09:07:37;;;;;;;35.5;16.15;;;;;;;-0.52;88.22852;97389.98;;;;
2022/01/13 09:08:37;;;;;;;35.5;16.15;;;;;;;-0.52;88.22852;97389.98;;;;
2022/01/13 09:09:38;;;;;;;35.5;16.15;;;;;;;-0.52;88.22852;97389.98;;;;
2022/01/13 09:10:40;;;;;;;35.5;16.15;;;;;;;-0.52;88.22852;97389.98;;;;
2022/01/13 09:11:42;;;;;;;35.5;16.15;;;;;;;-0.52;88.22852;97389.98;;;;
2022/01/13 09:12:43;;;;;;;35.5;16.15;;;;;;;-0.52;88.22852;97389.98;;;;
2022/01/13 09:13:44;;;;;;;35.5;16.15;;;;;;;-0.52;88.22852;97389.98;;;;
2022/01/13 09:14:45;;;;;;;35.5;16.15;;;;;;;-0.52;88.22852;97389.98;;;;
2022/01/13 09:15:49;;;;;;;35.5;16.15;;;;;;;-0.52;88.22852;97389.98;;;;
2022/01/13 09:16:50;;;;;;;31.15;15.05;;;;;;;-0.06;87.32617;97402.72;;;;
2022/01/13 09:17:52;;;;;;;31.15;15.05;;;;;;;-0.06;87.32617;97402.72;;;;